createdAt,value
2023-01-30T00:01:31.171Z,31.85
2023-01-30T00:04:01.817Z,34.22
2023-01-30T00:06:30.736Z,27.27
2023-01-30T00:08:58.765Z,30.85
2023-01-30T00:11:28.877Z,28.13
2023-01-30T00:13:57.401Z,28.75
2023-01-30T00:16:25.910Z,30.63
2023-01-30T00:18:54.380Z,31.15
2023-01-30T00:21:22.367Z,33.72
2023-01-30T00:23:50.303Z,32.28
2023-01-30T00:26:18.313Z,33.80
2023-01-30T00:28:46.553Z,34.45
2023-01-30T00:31:15.287Z,33.60
2023-01-30T00:33:43.650Z,31.42
2023-01-30T00:36:11.811Z,20.40
2023-01-30T00:38:40.215Z,21.05
2023-01-30T00:41:08.639Z,22.20
2023-01-30T00:43:56.465Z,18.75
2023-01-30T00:46:51.816Z,18.42
2023-01-30T00:49:22.752Z,18.40
2023-01-30T00:51:51.873Z,20.42
2023-01-30T00:54:21.105Z,19.35
2023-01-30T00:56:50.003Z,20.85
2023-01-30T00:59:17.987Z,21.67
2023-01-30T01:01:46.616Z,24.00
2023-01-30T01:04:14.900Z,24.35
2023-01-30T01:06:43.476Z,26.27
2023-01-30T01:09:12.679Z,24.23
2023-01-30T01:11:41.688Z,23.55
2023-01-30T01:14:09.694Z,24.92
2023-01-30T01:16:37.859Z,25.77
2023-01-30T01:19:05.962Z,24.73
2023-01-30T01:21:35.073Z,24.40
2023-01-30T01:24:03.490Z,21.80
2023-01-30T01:26:31.684Z,24.48
2023-01-30T01:28:59.985Z,23.45
2023-01-30T01:31:28.288Z,22.15
2023-01-30T01:33:57.850Z,25.05
2023-01-30T01:36:53.309Z,21.80
2023-01-30T01:39:17.998Z,24.05
2023-01-30T01:41:46.384Z,21.30
2023-01-30T01:44:17.467Z,23.05
2023-01-30T01:46:59.391Z,19.67
2023-01-30T01:49:35.957Z,19.23
2023-01-30T01:52:09.926Z,22.25
2023-01-30T01:54:39.105Z,22.40
2023-01-30T01:57:15.787Z,20.25
2023-01-30T01:59:53.229Z,19.23
2023-01-30T02:02:21.782Z,19.65
2023-01-30T02:05:03.419Z,19.75
2023-01-30T02:08:06.912Z,18.83
2023-01-30T02:10:53.471Z,19.65
2023-01-30T02:13:22.352Z,20.98
2023-01-30T02:15:51.724Z,23.45
2023-01-30T02:18:20.533Z,20.17
2023-01-30T02:21:19.081Z,17.08
2023-01-30T02:24:02.846Z,14.63
2023-01-30T02:26:49.991Z,15.27
2023-01-30T02:29:18.770Z,15.02
2023-01-30T02:32:23.042Z,16.08
2023-01-30T02:35:16.031Z,14.52
2023-01-30T02:38:03.049Z,10.93
2023-01-30T02:40:40.024Z,12.27
2023-01-30T02:43:17.257Z,12.30
2023-01-30T02:45:57.613Z,13.98
2023-01-30T02:48:34.013Z,15.18
2023-01-30T02:51:09.723Z,13.38
2023-01-30T02:53:38.401Z,13.05
2023-01-30T02:56:07.769Z,13.63
2023-01-30T02:58:42.823Z,11.82
2023-01-30T03:01:32.304Z,11.90
2023-01-30T03:04:26.741Z,11.88
2023-01-30T03:07:05.955Z,13.38
2023-01-30T03:10:19.201Z,12.70
2023-01-30T03:13:22.270Z,12.75
2023-01-30T03:15:58.371Z,14.85
2023-01-30T03:18:26.520Z,13.75
2023-01-30T03:20:55.029Z,12.25
2023-01-30T03:23:23.492Z,12.77
2023-01-30T03:25:55.195Z,10.38
2023-01-30T03:28:24.158Z,10.65
2023-01-30T03:30:52.195Z,10.00
2023-01-30T03:33:20.392Z,11.70
2023-01-30T03:35:51.924Z,14.23
2023-01-30T03:38:20.420Z,12.57
2023-01-30T03:40:51.129Z,11.70
2023-01-30T03:43:19.220Z,12.50
2023-01-30T03:45:47.943Z,14.13
2023-01-30T03:48:16.175Z,16.27
2023-01-30T03:50:44.496Z,13.95
2023-01-30T03:53:12.748Z,12.73
2023-01-30T03:55:40.865Z,13.05
2023-01-30T03:58:09.089Z,12.38
2023-01-30T04:00:37.187Z,12.00
2023-01-30T04:03:05.938Z,11.98
2023-01-30T04:05:34.544Z,12.27
2023-01-30T04:08:06.810Z,10.10
2023-01-30T04:10:36.249Z,10.27
2023-01-30T04:13:05.112Z,10.10
2023-01-30T04:15:33.731Z,9.85
2023-01-30T04:18:25.526Z,10.82
2023-01-30T04:21:05.283Z,11.13
2023-01-30T04:23:37.827Z,11.32
2023-01-30T04:26:07.021Z,12.52
2023-01-30T04:28:38.339Z,10.65
2023-01-30T04:31:07.493Z,11.70
2023-01-30T04:33:52.532Z,9.70
2023-01-30T04:36:21.084Z,10.60
2023-01-30T04:38:50.985Z,11.30
2023-01-30T04:41:21.698Z,10.75
2023-01-30T04:43:50.172Z,9.77
2023-01-30T04:46:21.975Z,10.50
2023-01-30T04:48:50.079Z,10.27
2023-01-30T04:51:18.590Z,9.68
2023-01-30T04:53:46.878Z,9.60
2023-01-30T04:56:15.150Z,11.18
2023-01-30T04:58:43.666Z,11.52
2023-01-30T05:01:30.335Z,11.43
2023-01-30T05:03:58.537Z,12.32
2023-01-30T05:06:26.946Z,13.50
2023-01-30T05:08:57.198Z,13.30
2023-01-30T05:11:27.031Z,11.80
2023-01-30T05:13:55.870Z,13.57
2023-01-30T05:16:24.589Z,13.38
2023-01-30T05:18:52.590Z,12.18
2023-01-30T05:21:23.910Z,11.32
2023-01-30T05:23:53.669Z,12.50
2023-01-30T05:26:22.402Z,12.10
2023-01-30T05:28:57.483Z,11.90
2023-01-30T05:31:26.180Z,11.75
2023-01-30T05:33:54.454Z,17.27
2023-01-30T05:36:23.701Z,12.80
2023-01-30T05:38:51.958Z,11.20
2023-01-30T05:41:20.092Z,11.88
2023-01-30T05:43:51.470Z,10.75
2023-01-30T05:46:20.648Z,12.55
2023-01-30T05:48:48.736Z,12.82
2023-01-30T05:51:24.991Z,15.52
2023-01-30T05:53:53.287Z,11.32
2023-01-30T05:56:21.889Z,11.82
2023-01-30T05:58:55.531Z,11.70
2023-01-30T06:01:24.560Z,12.45
2023-01-30T06:03:53.693Z,10.40
2023-01-30T06:06:22.860Z,11.07
2023-01-30T06:08:55.679Z,10.60
2023-01-30T06:11:24.871Z,7.70
2023-01-30T06:13:53.552Z,9.48
2023-01-30T06:16:21.800Z,10.68
2023-01-30T06:18:50.175Z,10.68
2023-01-30T06:21:18.846Z,10.27
2023-01-30T06:23:46.844Z,9.85
2023-01-30T06:26:14.979Z,11.32
2023-01-30T06:28:43.581Z,14.65
2023-01-30T06:31:12.110Z,18.00
2023-01-30T06:33:40.358Z,10.88
2023-01-30T06:36:09.236Z,8.43
2023-01-30T06:38:37.251Z,9.48
2023-01-30T06:41:05.970Z,11.52
2023-01-30T06:43:34.062Z,23.75
2023-01-30T06:46:02.124Z,11.07
2023-01-30T06:48:31.007Z,11.32
2023-01-30T06:50:59.137Z,12.45
2023-01-30T06:53:30.648Z,8.10
2023-01-30T06:56:00.270Z,9.95
2023-01-30T06:58:28.543Z,9.63
2023-01-30T07:00:57.579Z,10.88
2023-01-30T07:03:25.665Z,10.32
2023-01-30T07:05:53.756Z,9.68
2023-01-30T07:08:23.328Z,11.23
2023-01-30T07:10:53.180Z,10.65
2023-01-30T07:13:22.098Z,10.23
2023-01-30T07:15:50.764Z,10.07
2023-01-30T07:18:18.919Z,9.15
2023-01-30T07:20:48.334Z,9.32
2023-01-30T07:23:16.674Z,8.65
2023-01-30T07:25:45.097Z,8.73
2023-01-30T07:28:13.982Z,10.60
2023-01-30T07:30:41.961Z,9.50
2023-01-30T07:33:10.442Z,10.68
2023-01-30T07:35:39.177Z,10.80
2023-01-30T07:38:08.424Z,15.18
2023-01-30T07:40:39.780Z,13.85
2023-01-30T07:43:11.940Z,22.33
2023-01-30T07:45:48.966Z,28.20
2023-01-30T07:48:44.447Z,15.43
2023-01-30T07:51:12.447Z,15.18
2023-01-30T07:53:40.389Z,17.42
2023-01-30T07:56:14.577Z,14.85
2023-01-30T07:58:43.122Z,16.92
2023-01-30T08:01:11.093Z,16.75
2023-01-30T08:03:39.163Z,16.60
2023-01-30T08:06:07.565Z,16.35
2023-01-30T08:08:35.869Z,16.63
2023-01-30T08:11:03.980Z,15.70
2023-01-30T08:13:32.884Z,17.30
2023-01-30T08:16:02.092Z,19.73
2023-01-30T08:18:30.897Z,19.00
2023-01-30T08:21:03.180Z,17.23
2023-01-30T08:23:32.347Z,21.47
2023-01-30T08:26:02.725Z,19.63
2023-01-30T08:28:31.505Z,19.65
2023-01-30T08:30:59.645Z,15.63
2023-01-30T08:33:28.461Z,18.70
2023-01-30T08:35:57.285Z,19.50
2023-01-30T08:38:25.752Z,18.15
2023-01-30T08:40:54.321Z,19.67
2023-01-30T08:43:22.668Z,14.82
2023-01-30T08:45:54.763Z,14.40
2023-01-30T08:48:23.728Z,13.10
2023-01-30T08:50:56.500Z,12.95
2023-01-30T08:53:25.092Z,15.07
2023-01-30T08:55:54.228Z,14.07
2023-01-30T08:58:22.896Z,12.48
2023-01-30T09:00:51.116Z,12.68
2023-01-30T09:03:19.384Z,14.20
2023-01-30T09:05:47.614Z,15.80
2023-01-30T09:08:15.812Z,15.18
2023-01-30T09:10:44.071Z,13.50
2023-01-30T09:13:12.975Z,13.95
2023-01-30T09:15:44.576Z,13.88
2023-01-30T09:18:12.840Z,12.77
2023-01-30T09:20:40.995Z,13.75
2023-01-30T09:23:09.629Z,12.95
2023-01-30T09:25:38.845Z,13.55
2023-01-30T09:28:06.921Z,15.32
2023-01-30T09:30:35.087Z,13.60
2023-01-30T09:33:03.315Z,12.63
2023-01-30T09:35:32.350Z,17.50
2023-01-30T09:38:01.691Z,14.35
2023-01-30T09:40:33.295Z,14.77
2023-01-30T09:43:19.010Z,12.73
2023-01-30T09:45:53.568Z,11.63
2023-01-30T09:48:31.866Z,10.82
2023-01-30T09:51:11.655Z,10.75
2023-01-30T09:54:01.212Z,13.95
2023-01-30T09:56:30.217Z,11.77
2023-01-30T09:59:01.842Z,13.20
2023-01-30T10:01:42.220Z,11.07
2023-01-30T10:04:28.525Z,10.98
2023-01-30T10:07:06.439Z,8.88
2023-01-30T10:09:58.801Z,8.50
2023-01-30T10:12:46.174Z,10.40
2023-01-30T10:15:42.934Z,8.93
2023-01-30T10:18:37.234Z,11.10
2023-01-30T10:21:26.742Z,12.15
2023-01-30T10:23:57.880Z,11.73
2023-01-30T10:26:28.499Z,12.25
2023-01-30T10:29:18.401Z,13.48
2023-01-30T10:32:10.328Z,12.00
2023-01-30T10:34:43.120Z,11.07
2023-01-30T10:37:31.160Z,11.52
2023-01-30T10:40:08.159Z,10.23
2023-01-30T10:43:05.726Z,11.27
2023-01-30T10:45:38.985Z,26.70
2023-01-30T10:48:26.463Z,13.73
2023-01-30T10:51:15.540Z,18.27
2023-01-30T10:53:56.579Z,11.85
2023-01-30T10:56:53.295Z,12.80
2023-01-30T10:59:30.606Z,13.10
2023-01-30T11:02:36.106Z,12.45
2023-01-30T11:05:10.238Z,10.35
2023-01-30T11:07:38.375Z,10.75
2023-01-30T11:10:36.108Z,12.55
2023-01-30T11:13:27.503Z,11.23
2023-01-30T11:15:58.754Z,13.57
2023-01-30T11:19:16.660Z,15.15
2023-01-30T11:21:38.470Z,14.25
2023-01-30T11:24:41.849Z,13.77
2023-01-30T11:27:24.734Z,13.10
2023-01-30T11:30:23.298Z,13.70
2023-01-30T11:32:51.402Z,13.75
2023-01-30T11:35:29.023Z,15.90
2023-01-30T11:38:18.891Z,14.10
2023-01-30T11:40:47.370Z,14.45
2023-01-30T11:43:15.474Z,12.93
2023-01-30T11:45:50.610Z,13.65
2023-01-30T11:48:32.937Z,15.82
2023-01-30T11:51:11.315Z,17.17
2023-01-30T11:53:42.940Z,16.27
2023-01-30T11:56:34.053Z,18.98
2023-01-30T11:59:07.507Z,15.85
2023-01-30T12:01:37.316Z,16.25
2023-01-30T12:04:09.356Z,16.45
2023-01-30T12:06:39.911Z,15.82
2023-01-30T12:09:31.432Z,17.13
2023-01-30T12:11:59.940Z,15.90
2023-01-30T12:14:49.521Z,15.18
2023-01-30T12:18:03.696Z,15.20
2023-01-30T12:20:59.326Z,15.93
2023-01-30T12:23:53.313Z,16.17
2023-01-30T12:29:04.012Z,16.67
2023-01-30T12:31:46.835Z,15.90
2023-01-30T12:34:14.927Z,13.77
2023-01-30T12:37:05.098Z,15.23
2023-01-30T12:39:50.119Z,16.92
2023-01-30T12:42:33.908Z,13.73
2023-01-30T12:45:23.588Z,12.82
2023-01-30T12:48:18.346Z,13.85
2023-01-30T12:51:12.733Z,14.43
2023-01-30T12:54:01.122Z,13.57
2023-01-30T12:56:56.813Z,15.02
2023-01-30T12:59:48.601Z,14.13
2023-01-30T13:02:43.280Z,13.93
2023-01-30T13:05:46.311Z,16.33
2023-01-30T13:08:47.871Z,27.90
2023-01-30T13:11:38.558Z,15.40
2023-01-30T13:14:21.520Z,15.05
2023-01-30T13:17:16.631Z,17.20
2023-01-30T13:19:50.984Z,13.88
2023-01-30T13:22:41.393Z,15.57
2023-01-30T13:26:00.606Z,13.93
2023-01-30T13:28:34.570Z,13.98
2023-01-30T13:31:06.838Z,15.55
2023-01-30T13:33:39.456Z,13.70
2023-01-30T13:36:22.524Z,12.63
2023-01-30T13:39:29.235Z,13.82
2023-01-30T13:42:00.972Z,13.35
2023-01-30T13:44:32.516Z,13.20
2023-01-30T13:47:29.223Z,11.25
2023-01-30T13:50:02.949Z,11.57
2023-01-30T13:52:44.598Z,11.65
2023-01-30T13:55:34.202Z,14.00
2023-01-30T13:58:13.195Z,12.77
2023-01-30T14:00:55.901Z,16.73
2023-01-30T14:03:25.530Z,16.10
2023-01-30T14:06:01.082Z,11.60
2023-01-30T14:08:36.332Z,16.70
2023-01-30T14:11:05.248Z,14.30
2023-01-30T14:13:35.241Z,12.63
2023-01-30T14:16:05.791Z,14.88
2023-01-30T14:18:36.449Z,14.10
2023-01-30T14:21:25.085Z,11.88
2023-01-30T14:24:00.714Z,16.88
2023-01-30T14:26:48.212Z,13.30
2023-01-30T14:29:38.615Z,13.13
2023-01-30T14:32:12.848Z,14.00
2023-01-30T14:34:49.659Z,11.95
2023-01-30T14:37:38.958Z,12.43
2023-01-30T14:40:35.173Z,9.05
2023-01-30T14:43:15.113Z,12.93
2023-01-30T14:45:43.459Z,11.45
2023-01-30T14:48:30.595Z,10.82
2023-01-30T14:51:17.429Z,10.07
2023-01-30T14:54:00.220Z,9.82
2023-01-30T14:56:43.359Z,10.13
2023-01-30T14:59:21.463Z,12.40
2023-01-30T15:02:14.414Z,11.55
2023-01-30T15:04:47.335Z,10.43
2023-01-30T15:07:32.418Z,11.98
2023-01-30T15:10:26.235Z,10.68
2023-01-30T15:16:04.111Z,11.88
2023-01-30T15:18:55.746Z,11.63
2023-01-30T15:21:48.242Z,11.55
2023-01-30T15:24:25.344Z,12.30
2023-01-30T15:27:06.101Z,11.70
2023-01-30T15:30:01.413Z,10.68
2023-01-30T15:32:31.332Z,8.93
2023-01-30T15:35:21.690Z,9.00
2023-01-30T15:37:52.400Z,8.57
2023-01-30T15:40:27.231Z,9.80
2023-01-30T15:43:01.437Z,10.63
2023-01-30T15:45:43.865Z,10.93
2023-01-30T15:48:36.264Z,11.13
2023-01-30T15:51:05.590Z,10.02
2023-01-30T15:53:42.455Z,10.50
2023-01-30T15:56:18.193Z,11.52
2023-01-30T15:58:46.867Z,9.70
2023-01-30T16:01:20.946Z,9.07
2023-01-30T16:03:51.133Z,9.48
2023-01-30T16:06:37.533Z,10.20
2023-01-30T16:09:20.165Z,10.30
2023-01-30T16:11:49.171Z,11.48
2023-01-30T16:14:20.231Z,13.93
2023-01-30T16:16:57.802Z,12.98
2023-01-30T16:19:29.721Z,13.80
2023-01-30T16:22:02.689Z,15.07
2023-01-30T16:24:33.624Z,14.75
2023-01-30T16:27:16.464Z,15.73
2023-01-30T16:29:53.210Z,16.00
2023-01-30T16:32:30.667Z,16.60
2023-01-30T16:35:27.624Z,16.52
2023-01-30T16:37:57.934Z,17.13
2023-01-30T16:40:33.425Z,18.27
2023-01-30T16:43:18.003Z,16.67
2023-01-30T16:45:55.284Z,16.50
2023-01-30T16:48:30.983Z,19.08
2023-01-30T16:50:59.318Z,20.02
2023-01-30T16:53:29.826Z,18.88
2023-01-30T16:56:15.151Z,18.92
2023-01-30T16:58:49.149Z,20.00
2023-01-30T17:01:18.108Z,20.58
2023-01-30T17:03:57.301Z,20.27
2023-01-30T17:06:42.698Z,19.52
2023-01-30T17:09:28.994Z,19.88
2023-01-30T17:11:57.793Z,19.27
2023-01-30T17:14:27.292Z,20.10
2023-01-30T17:17:04.520Z,21.52
2023-01-30T17:19:32.681Z,22.27
2023-01-30T17:22:03.977Z,25.83
2023-01-30T17:24:32.822Z,26.00
2023-01-30T17:27:03.207Z,24.50
2023-01-30T17:29:49.143Z,23.17
2023-01-30T17:32:18.250Z,19.30
2023-01-30T17:34:46.792Z,28.98
2023-01-30T17:37:21.545Z,50.00
2023-01-30T17:39:50.290Z,23.27
2023-01-30T17:42:21.251Z,29.38
2023-01-30T17:44:50.276Z,37.90
2023-01-30T17:47:18.895Z,41.17
2023-01-30T17:49:47.536Z,39.13
2023-01-30T17:52:16.329Z,38.05
2023-01-30T17:54:44.505Z,28.25
2023-01-30T17:57:17.484Z,24.98
2023-01-30T17:59:47.057Z,26.58
2023-01-30T18:02:15.616Z,28.15
2023-01-30T18:04:44.135Z,49.47
2023-01-30T18:07:14.632Z,65.03
2023-01-30T18:09:43.644Z,57.25
2023-01-30T18:12:11.636Z,58.00
2023-01-30T18:14:39.584Z,40.55
2023-01-30T18:17:08.092Z,46.67
2023-01-30T18:19:36.545Z,53.63
2023-01-30T18:22:05.134Z,54.22
2023-01-30T18:24:34.436Z,78.65
2023-01-30T18:27:02.411Z,86.15
2023-01-30T18:29:30.994Z,70.82
2023-01-30T18:32:05.137Z,62.47
2023-01-30T18:34:34.102Z,67.45
2023-01-30T18:37:02.230Z,65.55
2023-01-30T18:39:32.129Z,75.25
2023-01-30T18:42:02.158Z,65.85
2023-01-30T18:44:30.262Z,70.65
2023-01-30T18:46:58.719Z,67.95
2023-01-30T18:49:27.272Z,65.80
2023-01-30T18:51:55.563Z,74.95
2023-01-30T18:54:24.247Z,77.40
2023-01-30T18:56:52.783Z,93.70
2023-01-30T18:59:20.813Z,92.03
2023-01-30T19:01:49.428Z,86.70
2023-01-30T19:04:18.220Z,83.80
2023-01-30T19:06:46.733Z,56.92
2023-01-30T19:09:19.148Z,55.80
2023-01-30T19:12:05.539Z,57.88
2023-01-30T19:14:34.526Z,60.67
2023-01-30T19:17:02.926Z,57.20
2023-01-30T19:19:30.976Z,58.22
2023-01-30T19:21:59.282Z,51.13
2023-01-30T19:24:27.264Z,51.08
2023-01-30T19:26:55.354Z,51.22
2023-01-30T19:29:23.844Z,49.70
2023-01-30T19:31:52.520Z,48.70
2023-01-30T19:34:21.078Z,55.22
2023-01-30T19:36:49.317Z,49.95
2023-01-30T19:39:18.536Z,57.63
2023-01-30T19:41:46.813Z,66.97
2023-01-30T19:44:15.710Z,70.80
2023-01-30T19:46:44.052Z,69.53
2023-01-30T19:49:13.202Z,58.25
2023-01-30T19:51:42.590Z,44.30
2023-01-30T19:54:12.286Z,43.28
2023-01-30T19:56:42.571Z,51.17
2023-01-30T19:59:13.174Z,44.53
2023-01-30T20:01:41.815Z,45.78
2023-01-30T20:04:10.123Z,46.33
2023-01-30T20:06:43.407Z,41.72
2023-01-30T20:09:11.994Z,34.85
2023-01-30T20:11:41.919Z,32.55
2023-01-30T20:14:11.543Z,35.28
2023-01-30T20:16:40.424Z,78.35
2023-01-30T20:19:18.232Z,61.95
2023-01-30T20:21:46.702Z,67.28
2023-01-30T20:24:16.103Z,91.82
2023-01-30T20:26:48.220Z,79.47
2023-01-30T20:29:18.076Z,87.60
2023-01-30T20:31:46.225Z,89.90
2023-01-30T20:34:15.018Z,93.75
2023-01-30T20:36:43.548Z,91.05
2023-01-30T20:39:11.665Z,92.53
2023-01-30T20:41:41.182Z,83.85
2023-01-30T20:44:12.727Z,77.72
2023-01-30T20:46:43.668Z,65.65
2023-01-30T20:49:17.520Z,87.13
2023-01-30T20:51:46.928Z,86.53
2023-01-30T20:54:15.409Z,73.72
2023-01-30T20:56:52.227Z,49.08
2023-01-30T20:59:24.482Z,47.88
2023-01-30T21:01:54.159Z,48.13
2023-01-30T21:04:24.595Z,43.85
2023-01-30T21:06:53.763Z,45.33
2023-01-30T21:09:23.453Z,49.78
2023-01-30T21:11:53.469Z,50.95
2023-01-30T21:14:24.988Z,53.80
2023-01-30T21:16:54.765Z,61.03
2023-01-30T21:19:25.669Z,65.05
2023-01-30T21:22:13.241Z,68.40
2023-01-30T21:25:01.008Z,74.10
2023-01-30T21:27:48.548Z,62.80
2023-01-30T21:30:36.984Z,67.47
2023-01-30T21:33:24.139Z,66.05
2023-01-30T21:36:11.641Z,69.00
2023-01-30T21:39:18.358Z,70.57
2023-01-30T21:42:23.621Z,72.82
2023-01-30T21:45:10.610Z,82.40
2023-01-30T21:47:58.018Z,79.57
2023-01-30T21:50:44.809Z,80.75
2023-01-30T21:53:33.564Z,82.22
2023-01-30T21:56:21.560Z,82.60
2023-01-30T21:59:08.508Z,74.90
2023-01-30T22:01:54.997Z,71.10
2023-01-30T22:04:41.824Z,45.60
2023-01-30T22:07:28.432Z,46.70
2023-01-30T22:10:15.450Z,44.38
2023-01-30T22:13:01.793Z,43.70
2023-01-30T22:15:49.153Z,45.38
2023-01-30T22:18:36.473Z,47.40
2023-01-30T22:21:25.024Z,49.45
2023-01-30T22:24:12.429Z,40.33
2023-01-30T22:26:59.579Z,40.33
2023-01-30T22:29:46.076Z,46.30
2023-01-30T22:32:33.227Z,46.58
2023-01-30T22:35:20.303Z,51.22
2023-01-30T22:38:06.976Z,52.72
2023-01-30T22:41:09.049Z,52.90
2023-01-30T22:43:57.594Z,49.47
2023-01-30T22:46:44.290Z,41.20
2023-01-30T22:49:31.281Z,48.03
2023-01-30T22:52:17.661Z,54.40
2023-01-30T22:55:04.334Z,55.30
2023-01-30T22:57:51.121Z,59.45
2023-01-30T23:00:38.052Z,60.78
2023-01-30T23:03:24.891Z,45.72
2023-01-30T23:06:14.071Z,54.13
2023-01-30T23:09:01.228Z,50.72
2023-01-30T23:12:15.294Z,46.35
2023-01-30T23:18:06.487Z,39.97
2023-01-30T23:20:52.862Z,41.20
2023-01-30T23:23:40.085Z,39.17
2023-01-30T23:26:29.269Z,39.05
2023-01-30T23:29:19.501Z,36.67
2023-01-30T23:32:06.869Z,43.22
2023-01-30T23:34:53.211Z,46.78
2023-01-30T23:37:58.506Z,44.45
2023-01-30T23:40:47.234Z,41.95
2023-01-30T23:43:34.111Z,41.55
2023-01-30T23:46:28.606Z,41.55
2023-01-30T23:49:15.911Z,46.80
2023-01-30T23:52:02.839Z,47.00
2023-01-30T23:54:50.826Z,40.50
2023-01-30T23:57:37.523Z,46.03
